createdAt,value
2023-03-28T00:01:05.374Z,7.37
2023-03-28T00:03:35.996Z,7.43
2023-03-28T00:06:05.661Z,5.40
2023-03-28T00:08:33.071Z,4.80
2023-03-28T00:11:18.735Z,6.33
2023-03-28T00:13:53.685Z,4.43
2023-03-28T00:16:21.650Z,5.70
2023-03-28T00:18:50.856Z,6.57
2023-03-28T00:21:27.277Z,6.17
2023-03-28T00:23:55.951Z,7.10
2023-03-28T00:26:26.607Z,5.07
2023-03-28T00:28:54.750Z,5.90
2023-03-28T00:31:22.436Z,6.03
2023-03-28T00:33:49.385Z,8.53
2023-03-28T00:36:26.539Z,6.37
2023-03-28T00:38:53.957Z,8.13
2023-03-28T00:41:25.649Z,4.63
2023-03-28T00:43:54.524Z,5.60
2023-03-28T00:46:42.131Z,5.50
2023-03-28T00:49:26.168Z,8.20
2023-03-28T00:51:57.588Z,5.23
2023-03-28T00:54:28.173Z,5.77
2023-03-28T00:56:59.705Z,6.83
2023-03-28T00:59:29.973Z,4.30
2023-03-28T01:01:56.819Z,5.93
2023-03-28T01:04:27.237Z,4.60
2023-03-28T01:06:56.930Z,5.57
2023-03-28T01:09:24.576Z,5.67
2023-03-28T01:11:53.744Z,7.07
2023-03-28T01:14:23.274Z,8.17
2023-03-28T01:16:51.272Z,6.63
2023-03-28T01:19:50.444Z,5.60
2023-03-28T01:22:56.124Z,4.40
2023-03-28T01:25:44.926Z,3.90
2023-03-28T01:28:43.444Z,4.97
2023-03-28T01:31:19.468Z,4.20
2023-03-28T01:34:07.676Z,4.30
2023-03-28T01:36:48.128Z,7.73
2023-03-28T01:39:29.913Z,3.67
2023-03-28T01:42:22.684Z,3.93
2023-03-28T01:45:19.131Z,7.07
2023-03-28T01:48:03.703Z,6.40
2023-03-28T01:50:50.987Z,4.83
2023-03-28T01:53:26.546Z,4.00
2023-03-28T01:56:22.251Z,6.30
2023-03-28T01:58:56.846Z,3.80
2023-03-28T02:01:31.110Z,3.50
2023-03-28T02:04:02.553Z,6.17
2023-03-28T02:06:31.094Z,4.17
2023-03-28T02:08:58.685Z,4.77
2023-03-28T02:11:27.449Z,4.60
2023-03-28T02:14:14.564Z,3.53
2023-03-28T02:16:43.957Z,3.70
2023-03-28T02:19:12.583Z,6.47
2023-03-28T02:21:43.540Z,4.67
2023-03-28T02:24:12.266Z,4.87
2023-03-28T02:26:39.818Z,4.50
2023-03-28T02:29:09.341Z,3.40
2023-03-28T02:31:37.623Z,5.57
2023-03-28T02:34:04.550Z,5.63
2023-03-28T02:36:34.585Z,4.47
2023-03-28T02:39:16.733Z,3.97
2023-03-28T02:42:25.408Z,7.03
2023-03-28T02:45:21.691Z,3.73
2023-03-28T02:48:26.032Z,2.37
2023-03-28T02:51:20.254Z,4.50
2023-03-28T02:53:53.217Z,2.07
2023-03-28T02:56:37.052Z,4.77
2023-03-28T02:59:40.960Z,2.70
2023-03-28T03:02:08.396Z,5.40
2023-03-28T03:04:35.183Z,4.90
2023-03-28T03:07:02.580Z,4.50
2023-03-28T03:09:29.591Z,4.47
2023-03-28T03:11:56.308Z,5.37
2023-03-28T03:14:23.262Z,5.50
2023-03-28T03:16:51.680Z,4.10
2023-03-28T03:19:19.338Z,2.37
2023-03-28T03:21:46.591Z,4.37
2023-03-28T03:24:19.316Z,6.97
2023-03-28T03:26:46.600Z,3.60
2023-03-28T03:29:14.726Z,3.50
2023-03-28T03:31:41.806Z,5.87
2023-03-28T03:34:08.693Z,3.33
2023-03-28T03:36:35.481Z,3.20
2023-03-28T03:39:02.253Z,5.17
2023-03-28T03:41:28.960Z,5.80
2023-03-28T03:43:55.905Z,6.03
2023-03-28T03:46:22.698Z,3.03
2023-03-28T03:48:50.512Z,5.77
2023-03-28T03:51:18.067Z,3.73
2023-03-28T03:53:45.032Z,4.50
2023-03-28T03:56:11.738Z,5.80
2023-03-28T03:58:38.493Z,3.27
2023-03-28T04:01:05.478Z,4.00
2023-03-28T04:03:33.894Z,7.07
2023-03-28T04:06:02.037Z,3.47
2023-03-28T04:08:29.029Z,4.67
2023-03-28T04:10:55.745Z,4.10
2023-03-28T04:13:22.592Z,6.50
2023-03-28T04:15:49.442Z,3.63
2023-03-28T04:18:17.893Z,3.10
2023-03-28T04:20:57.062Z,3.33
2023-03-28T04:23:26.873Z,2.57
2023-03-28T04:25:57.426Z,2.90
2023-03-28T04:28:25.743Z,4.90
2023-03-28T04:30:54.624Z,4.40
2023-03-28T04:33:25.233Z,2.77
2023-03-28T04:35:57.201Z,7.33
2023-03-28T04:38:26.248Z,5.30
2023-03-28T04:40:57.685Z,2.47
2023-03-28T04:43:29.132Z,4.83
2023-03-28T04:45:56.861Z,3.83
2023-03-28T04:48:25.229Z,4.43
2023-03-28T04:50:52.825Z,4.60
2023-03-28T04:53:19.925Z,3.70
2023-03-28T04:55:51.144Z,8.83
2023-03-28T04:58:19.856Z,3.27
2023-03-28T05:00:47.461Z,5.80
2023-03-28T05:03:18.385Z,8.03
2023-03-28T05:05:49.742Z,3.53
2023-03-28T05:08:18.369Z,4.30
2023-03-28T05:10:46.142Z,3.23
2023-03-28T05:13:13.733Z,3.03
2023-03-28T05:15:40.528Z,3.80
2023-03-28T05:18:07.305Z,3.90
2023-03-28T05:20:34.443Z,3.57
2023-03-28T05:23:02.101Z,4.93
2023-03-28T05:25:30.447Z,3.13
2023-03-28T05:27:57.171Z,4.87
2023-03-28T05:30:23.918Z,5.00
2023-03-28T05:32:50.698Z,3.73
2023-03-28T05:35:17.611Z,4.33
2023-03-28T05:37:46.775Z,3.23
2023-03-28T05:40:15.452Z,2.83
2023-03-28T05:42:42.452Z,3.70
2023-03-28T05:45:12.447Z,3.93
2023-03-28T05:47:39.324Z,4.23
2023-03-28T05:50:07.363Z,3.20
2023-03-28T05:52:34.246Z,3.60
2023-03-28T05:55:01.035Z,4.47
2023-03-28T05:57:28.173Z,3.83
2023-03-28T05:59:54.961Z,3.83
2023-03-28T06:02:23.661Z,2.90
2023-03-28T06:04:53.655Z,3.70
2023-03-28T06:07:35.213Z,5.40
2023-03-28T06:10:10.628Z,4.20
2023-03-28T06:12:37.699Z,5.87
2023-03-28T06:15:05.166Z,4.90
2023-03-28T06:17:32.365Z,6.50
2023-03-28T06:19:59.146Z,4.53
2023-03-28T06:22:26.568Z,5.60
2023-03-28T06:24:53.483Z,5.47
2023-03-28T06:27:20.352Z,5.37
2023-03-28T06:29:47.095Z,6.57
2023-03-28T06:32:15.326Z,6.00
2023-03-28T06:34:42.139Z,6.53
2023-03-28T06:37:08.952Z,5.73
2023-03-28T06:39:35.899Z,6.43
2023-03-28T06:42:03.431Z,3.80
2023-03-28T06:44:31.116Z,6.47
2023-03-28T06:46:58.195Z,4.23
2023-03-28T06:49:25.336Z,6.03
2023-03-28T06:51:53.145Z,5.07
2023-03-28T06:54:19.921Z,5.20
2023-03-28T06:56:47.091Z,6.53
2023-03-28T06:59:13.963Z,5.13
2023-03-28T07:01:41.165Z,6.90
2023-03-28T07:04:08.030Z,16.00
2023-03-28T07:06:34.870Z,7.17
2023-03-28T07:09:02.530Z,5.20
2023-03-28T07:11:30.888Z,6.60
2023-03-28T07:13:57.645Z,5.83
2023-03-28T07:16:24.515Z,7.60
2023-03-28T07:18:51.370Z,7.57
2023-03-28T07:21:19.247Z,6.63
2023-03-28T07:23:46.123Z,8.40
2023-03-28T07:26:14.428Z,6.07
2023-03-28T07:28:41.685Z,6.33
2023-03-28T07:31:08.794Z,8.67
2023-03-28T07:33:38.055Z,5.90
2023-03-28T07:36:10.921Z,8.67
2023-03-28T07:38:37.752Z,5.60
2023-03-28T07:41:05.494Z,9.30
2023-03-28T07:43:32.336Z,8.17
2023-03-28T07:46:03.513Z,7.03
2023-03-28T07:48:30.633Z,7.83
2023-03-28T07:50:57.683Z,8.10
2023-03-28T07:53:25.097Z,6.30
2023-03-28T07:55:54.877Z,6.33
2023-03-28T07:58:22.892Z,5.23
2023-03-28T08:00:50.625Z,8.87
2023-03-28T08:03:18.792Z,8.47
2023-03-28T08:05:51.635Z,8.93
2023-03-28T08:08:20.386Z,12.83
2023-03-28T08:10:51.104Z,6.80
2023-03-28T08:13:20.830Z,9.53
2023-03-28T08:15:54.361Z,11.57
2023-03-28T08:18:24.397Z,7.53
2023-03-28T08:20:57.787Z,5.83
2023-03-28T08:23:26.419Z,10.60
2023-03-28T08:25:54.180Z,9.60
2023-03-28T08:28:22.256Z,7.80
2023-03-28T08:30:49.050Z,7.83
2023-03-28T08:33:16.683Z,11.07
2023-03-28T08:35:43.533Z,10.50
2023-03-28T08:38:11.336Z,7.63
2023-03-28T08:40:46.290Z,11.97
2023-03-28T08:43:29.685Z,9.00
2023-03-28T08:45:59.176Z,14.60
2023-03-28T08:48:41.156Z,10.70
2023-03-28T08:51:11.156Z,10.10
2023-03-28T08:53:43.901Z,14.83
2023-03-28T08:56:14.067Z,13.10
2023-03-28T08:59:12.747Z,11.37
2023-03-28T09:01:39.982Z,11.23
2023-03-28T09:04:07.039Z,11.17
2023-03-28T09:06:44.594Z,12.87
2023-03-28T09:09:35.480Z,11.10
2023-03-28T09:12:39.039Z,15.37
2023-03-28T09:15:46.591Z,12.73
2023-03-28T09:18:31.772Z,11.83
2023-03-28T09:21:22.753Z,13.53
2023-03-28T09:24:34.005Z,13.10
2023-03-28T09:27:12.981Z,13.83
2023-03-28T09:29:41.787Z,14.30
2023-03-28T09:32:33.553Z,12.93
2023-03-28T09:35:02.257Z,13.50
2023-03-28T09:37:35.689Z,11.77
2023-03-28T09:40:20.828Z,12.50
2023-03-28T09:43:13.268Z,10.47
2023-03-28T09:46:01.100Z,10.93
2023-03-28T09:48:31.006Z,12.63
2023-03-28T09:50:59.615Z,10.27
2023-03-28T09:53:32.923Z,12.00
2023-03-28T09:56:26.438Z,13.07
2023-03-28T09:59:05.248Z,14.13
2023-03-28T10:01:41.705Z,11.17
2023-03-28T10:04:17.726Z,11.40
2023-03-28T10:06:45.821Z,15.20
2023-03-28T10:09:28.396Z,12.07
2023-03-28T10:12:00.853Z,11.63
2023-03-28T10:14:36.457Z,13.77
2023-03-28T10:17:08.155Z,13.70
2023-03-28T10:19:38.275Z,11.87
2023-03-28T10:22:08.450Z,13.90
2023-03-28T10:24:35.974Z,15.70
2023-03-28T10:27:14.706Z,12.63
2023-03-28T10:29:41.881Z,15.27
2023-03-28T10:32:13.062Z,15.17
2023-03-28T10:34:41.210Z,19.73
2023-03-28T10:37:31.957Z,13.37
2023-03-28T10:40:07.774Z,14.80
2023-03-28T10:42:42.667Z,11.03
2023-03-28T10:45:24.054Z,8.30
2023-03-28T10:47:56.703Z,8.13
2023-03-28T10:50:41.992Z,10.10
2023-03-28T10:53:33.243Z,8.87
2023-03-28T10:56:28.135Z,10.83
2023-03-28T10:59:17.992Z,8.33
2023-03-28T11:02:12.274Z,8.73
2023-03-28T11:04:47.789Z,9.20
2023-03-28T11:07:39.281Z,9.93
2023-03-28T11:10:23.650Z,7.90
2023-03-28T11:12:59.475Z,9.23
2023-03-28T11:15:29.289Z,6.00
2023-03-28T11:18:14.315Z,4.80
2023-03-28T11:20:52.822Z,4.97
2023-03-28T11:23:31.975Z,3.00
2023-03-28T11:26:08.366Z,3.97
2023-03-28T11:28:46.060Z,3.03
2023-03-28T11:31:26.624Z,4.00
2023-03-28T11:34:00.332Z,4.13
2023-03-28T11:36:40.242Z,2.47
2023-03-28T11:39:18.267Z,6.63
2023-03-28T11:41:47.826Z,2.53
2023-03-28T11:44:20.619Z,3.13
2023-03-28T11:46:57.112Z,4.50
2023-03-28T11:49:29.804Z,3.30
2023-03-28T11:52:16.825Z,4.93
2023-03-28T11:54:53.655Z,7.07
2023-03-28T11:57:40.796Z,5.73
2023-03-28T12:00:36.517Z,3.83
2023-03-28T12:03:19.863Z,3.13
2023-03-28T12:06:00.002Z,4.93
2023-03-28T12:08:52.026Z,2.53
2023-03-28T12:11:46.794Z,4.67
2023-03-28T12:14:30.056Z,4.27
2023-03-28T12:16:58.781Z,5.53
2023-03-28T12:19:37.862Z,6.73
2023-03-28T12:22:15.431Z,5.87
2023-03-28T12:24:44.705Z,5.63
2023-03-28T12:27:20.424Z,5.33
2023-03-28T12:29:56.717Z,2.67
2023-03-28T12:32:45.285Z,5.10
2023-03-28T12:35:37.433Z,2.30
2023-03-28T12:38:12.906Z,4.33
2023-03-28T12:40:50.675Z,3.03
2023-03-28T12:43:19.717Z,3.90
2023-03-28T12:45:52.982Z,4.77
2023-03-28T12:48:41.140Z,4.37
2023-03-28T12:51:11.238Z,3.67
2023-03-28T12:53:59.186Z,4.93
2023-03-28T12:56:26.502Z,6.10
2023-03-28T12:58:53.853Z,3.40
2023-03-28T13:01:34.378Z,4.73
2023-03-28T13:04:27.662Z,5.20
2023-03-28T13:07:12.849Z,5.00
2023-03-28T13:09:45.200Z,3.57
2023-03-28T13:12:35.101Z,4.47
2023-03-28T13:15:03.908Z,4.00
2023-03-28T13:17:32.993Z,6.37
2023-03-28T13:20:15.592Z,3.20
2023-03-28T13:22:54.633Z,5.23
2023-03-28T13:25:39.939Z,2.53
2023-03-28T13:28:12.847Z,4.40
2023-03-28T13:30:45.468Z,5.13
2023-03-28T13:33:26.811Z,6.80
2023-03-28T13:35:59.526Z,3.33
2023-03-28T13:38:29.285Z,5.00
2023-03-28T13:41:02.693Z,4.50
2023-03-28T13:43:40.026Z,3.13
2023-03-28T13:46:12.838Z,6.37
2023-03-28T13:49:02.616Z,3.50
2023-03-28T13:51:33.629Z,3.83
2023-03-28T13:54:00.637Z,5.47
2023-03-28T13:56:32.350Z,5.17
2023-03-28T13:59:00.644Z,7.77
2023-03-28T14:01:37.282Z,3.33
2023-03-28T14:04:16.337Z,5.93
2023-03-28T14:06:43.155Z,5.10
2023-03-28T14:09:21.609Z,4.43
2023-03-28T14:11:50.029Z,5.47
2023-03-28T14:14:29.794Z,5.00
2023-03-28T14:16:57.454Z,7.17
2023-03-28T14:19:37.873Z,3.07
2023-03-28T14:22:13.412Z,3.60
2023-03-28T14:24:40.261Z,8.07
2023-03-28T14:27:14.365Z,5.47
2023-03-28T14:29:55.227Z,4.10
2023-03-28T14:32:32.651Z,6.00
2023-03-28T14:35:29.699Z,6.47
2023-03-28T14:37:58.630Z,3.63
2023-03-28T14:40:25.682Z,4.63
2023-03-28T14:43:05.259Z,5.27
2023-03-28T14:45:37.826Z,4.80
2023-03-28T14:48:08.742Z,4.97
2023-03-28T14:50:38.548Z,4.87
2023-03-28T14:53:09.498Z,5.40
2023-03-28T14:55:37.726Z,7.80
2023-03-28T14:58:06.461Z,7.37
2023-03-28T15:00:42.780Z,5.53
2023-03-28T15:03:17.627Z,5.47
2023-03-28T15:05:47.300Z,5.10
2023-03-28T15:08:31.657Z,4.00
2023-03-28T15:11:03.415Z,3.77
2023-03-28T15:13:37.090Z,6.37
2023-03-28T15:16:08.126Z,5.50
2023-03-28T15:18:46.845Z,5.47
2023-03-28T15:21:14.628Z,6.97
2023-03-28T15:24:12.495Z,4.97
2023-03-28T15:26:44.067Z,5.00
2023-03-28T15:29:16.833Z,5.47
2023-03-28T15:31:43.832Z,6.27
2023-03-28T15:34:18.327Z,4.67
2023-03-28T15:37:09.119Z,4.57
2023-03-28T15:39:36.050Z,4.43
2023-03-28T15:42:20.905Z,7.27
2023-03-28T15:45:10.834Z,5.40
2023-03-28T15:47:37.861Z,5.60
2023-03-28T15:50:07.509Z,5.70
2023-03-28T15:52:35.133Z,4.00
2023-03-28T15:55:03.152Z,6.17
2023-03-28T15:57:31.163Z,5.23
2023-03-28T15:59:58.831Z,5.33
2023-03-28T16:02:25.784Z,4.70
2023-03-28T16:05:04.839Z,4.30
2023-03-28T16:07:34.460Z,4.63
2023-03-28T16:10:01.307Z,9.43
2023-03-28T16:12:28.484Z,5.13
2023-03-28T16:14:55.715Z,5.20
2023-03-28T16:17:28.797Z,4.50
2023-03-28T16:19:56.191Z,4.10
2023-03-28T16:22:23.692Z,5.13
2023-03-28T16:24:54.539Z,4.90
2023-03-28T16:27:22.112Z,5.73
2023-03-28T16:29:49.057Z,5.77
2023-03-28T16:32:16.873Z,5.27
2023-03-28T16:34:44.574Z,8.80
2023-03-28T16:37:11.466Z,6.63
2023-03-28T16:39:38.742Z,4.00
2023-03-28T16:42:06.201Z,6.03
2023-03-28T16:44:33.462Z,6.50
2023-03-28T16:47:02.349Z,6.80
2023-03-28T16:49:30.032Z,5.70
2023-03-28T16:51:57.135Z,7.03
2023-03-28T16:54:24.601Z,4.87
2023-03-28T16:56:51.383Z,3.87
2023-03-28T16:59:18.230Z,6.00
2023-03-28T17:01:46.360Z,7.50
2023-03-28T17:04:13.654Z,7.07
2023-03-28T17:06:40.417Z,6.43
2023-03-28T17:09:07.191Z,7.80
2023-03-28T17:11:34.768Z,7.03
2023-03-28T17:14:01.784Z,9.87
2023-03-28T17:16:28.632Z,6.30
2023-03-28T17:18:55.610Z,5.87
2023-03-28T17:21:22.616Z,6.70
2023-03-28T17:23:50.987Z,6.07
2023-03-28T17:26:18.400Z,7.20
2023-03-28T17:28:45.805Z,9.37
2023-03-28T17:31:18.538Z,8.53
2023-03-28T17:33:47.116Z,5.30
2023-03-28T17:36:14.226Z,6.60
2023-03-28T17:38:41.005Z,6.33
2023-03-28T17:41:09.123Z,7.53
2023-03-28T17:43:36.063Z,6.83
2023-03-28T17:46:03.347Z,6.47
2023-03-28T17:48:30.388Z,6.57
2023-03-28T17:50:57.098Z,6.40
2023-03-28T17:53:24.053Z,6.10
2023-03-28T17:55:51.795Z,6.93
2023-03-28T17:58:18.535Z,5.77
2023-03-28T18:00:45.698Z,5.33
2023-03-28T18:03:12.806Z,5.27
2023-03-28T18:05:39.650Z,6.37
2023-03-28T18:08:06.534Z,6.20
2023-03-28T18:10:33.331Z,7.37
2023-03-28T18:13:00.021Z,6.27
2023-03-28T18:15:26.830Z,8.27
2023-03-28T18:17:53.693Z,7.13
2023-03-28T18:20:22.357Z,5.37
2023-03-28T18:22:50.490Z,6.53
2023-03-28T18:25:17.356Z,8.03
2023-03-28T18:27:44.163Z,7.10
2023-03-28T18:30:11.370Z,6.30
2023-03-28T18:32:38.210Z,7.83
2023-03-28T18:35:07.277Z,7.20
2023-03-28T18:37:34.474Z,6.47
2023-03-28T18:40:01.791Z,7.03
2023-03-28T18:42:30.072Z,7.17
2023-03-28T18:44:57.144Z,7.93
2023-03-28T18:47:24.197Z,6.47
2023-03-28T18:49:50.894Z,10.23
2023-03-28T18:52:17.598Z,5.70
2023-03-28T18:54:46.710Z,10.07
2023-03-28T18:57:13.576Z,6.73
2023-03-28T18:59:40.505Z,8.27
2023-03-28T19:02:12.575Z,8.23
2023-03-28T19:04:39.774Z,5.60
2023-03-28T19:07:06.540Z,6.03
2023-03-28T19:09:33.227Z,7.13
2023-03-28T19:12:01.292Z,8.67
2023-03-28T19:14:28.170Z,6.07
2023-03-28T19:16:55.373Z,6.97
2023-03-28T19:19:23.441Z,8.40
2023-03-28T19:21:51.829Z,6.50
2023-03-28T19:24:21.967Z,6.93
2023-03-28T19:26:49.647Z,7.70
2023-03-28T19:29:16.930Z,6.27
2023-03-28T19:31:44.114Z,8.77
2023-03-28T19:34:17.239Z,8.90
2023-03-28T19:36:44.197Z,8.83
2023-03-28T19:39:10.911Z,9.40
2023-03-28T19:41:37.717Z,6.70
2023-03-28T19:44:04.969Z,6.70
2023-03-28T19:46:36.216Z,9.73
2023-03-28T19:49:06.438Z,8.70
2023-03-28T19:51:33.546Z,7.87
2023-03-28T19:54:00.817Z,10.37
2023-03-28T19:56:28.103Z,8.10
2023-03-28T19:58:54.951Z,9.87
2023-03-28T20:01:23.350Z,11.63
2023-03-28T20:03:53.131Z,7.40
2023-03-28T20:06:21.821Z,7.73
2023-03-28T20:08:49.168Z,9.47
2023-03-28T20:11:18.327Z,8.10
2023-03-28T20:13:45.892Z,10.20
2023-03-28T20:16:13.750Z,8.50
2023-03-28T20:18:41.695Z,10.60
2023-03-28T20:21:11.725Z,8.27
2023-03-28T20:23:38.890Z,9.13
2023-03-28T20:26:18.717Z,8.53
2023-03-28T20:28:52.336Z,8.20
2023-03-28T20:31:19.648Z,6.10
2023-03-28T20:33:46.521Z,9.63
2023-03-28T20:36:13.426Z,9.63
2023-03-28T20:38:40.588Z,6.80
2023-03-28T20:41:15.807Z,7.63
2023-03-28T20:43:46.974Z,10.53
2023-03-28T20:46:18.452Z,8.97
2023-03-28T20:48:46.628Z,8.03
2023-03-28T20:51:16.984Z,8.77
2023-03-28T20:53:46.084Z,8.43
2023-03-28T20:56:13.744Z,10.43
2023-03-28T20:58:42.571Z,7.33
2023-03-28T21:01:12.250Z,8.10
2023-03-28T21:03:47.172Z,8.23
2023-03-28T21:06:26.130Z,7.43
2023-03-28T21:08:54.959Z,8.77
2023-03-28T21:11:25.957Z,7.53
2023-03-28T21:13:53.242Z,9.33
2023-03-28T21:16:21.616Z,7.63
2023-03-28T21:18:49.636Z,6.43
2023-03-28T21:21:18.023Z,7.23
2023-03-28T21:23:45.828Z,8.00
2023-03-28T21:26:16.262Z,8.97
2023-03-28T21:28:43.895Z,8.00
2023-03-28T21:31:13.866Z,7.43
2023-03-28T21:33:42.616Z,7.67
2023-03-28T21:36:11.518Z,8.40
2023-03-28T21:38:39.141Z,6.80
2023-03-28T21:41:07.597Z,9.90
2023-03-28T21:43:35.194Z,9.13
2023-03-28T21:46:03.274Z,6.03
2023-03-28T21:48:30.525Z,8.57
2023-03-28T21:50:59.281Z,7.77
2023-03-28T21:53:28.499Z,7.53
2023-03-28T21:55:56.303Z,10.00
2023-03-28T21:58:23.923Z,10.30
2023-03-28T22:00:50.962Z,7.73
2023-03-28T22:03:18.002Z,9.17
2023-03-28T22:05:45.480Z,9.80
2023-03-28T22:08:13.176Z,9.37
2023-03-28T22:10:49.382Z,9.57
2023-03-28T22:13:16.345Z,11.97
2023-03-28T22:15:43.123Z,9.53
2023-03-28T22:18:11.353Z,9.07
2023-03-28T22:20:39.904Z,7.53
2023-03-28T22:23:07.092Z,6.80
2023-03-28T22:25:38.184Z,9.27
2023-03-28T22:28:07.435Z,9.03
2023-03-28T22:30:35.209Z,8.70
2023-03-28T22:33:03.932Z,8.63
2023-03-28T22:35:32.266Z,10.83
2023-03-28T22:38:00.395Z,8.30
2023-03-28T22:40:27.484Z,10.73
2023-03-28T22:42:54.450Z,9.93
2023-03-28T22:45:22.695Z,12.53
2023-03-28T22:47:51.535Z,9.97
2023-03-28T22:50:19.099Z,12.83
2023-03-28T22:52:50.244Z,10.03
2023-03-28T22:55:17.655Z,10.47
2023-03-28T22:57:45.332Z,10.23
2023-03-28T23:00:13.821Z,12.10
2023-03-28T23:02:41.523Z,11.90
2023-03-28T23:05:09.448Z,13.43
2023-03-28T23:07:37.222Z,11.33
2023-03-28T23:10:05.959Z,12.57
2023-03-28T23:12:32.669Z,12.33
2023-03-28T23:14:59.483Z,11.20
2023-03-28T23:17:26.389Z,10.87
2023-03-28T23:19:54.293Z,11.17
2023-03-28T23:22:22.421Z,11.47
2023-03-28T23:24:52.115Z,14.53
2023-03-28T23:27:19.992Z,13.80
2023-03-28T23:29:46.752Z,11.93
2023-03-28T23:32:13.556Z,12.60
2023-03-28T23:34:40.355Z,13.47
2023-03-28T23:37:07.180Z,12.60
2023-03-28T23:39:33.984Z,12.03
2023-03-28T23:42:01.029Z,14.40
2023-03-28T23:44:27.935Z,14.27
2023-03-28T23:46:56.228Z,14.33
2023-03-28T23:49:23.675Z,13.83
2023-03-28T23:51:50.846Z,13.57
2023-03-28T23:54:18.642Z,13.73
2023-03-28T23:56:47.337Z,15.67
2023-03-28T23:59:14.038Z,15.83
